sensor_id;sensor_type;location;lat;lon;timestamp;P1;durP1;ratioP1;P2;durP2;ratioP2
3307;SDS011;1666;48.898;9.182;2023-03-31T00:00:13;7.32;;;2.05;;
3307;SDS011;1666;48.898;9.182;2023-03-31T00:02:44;7.00;;;1.83;;
3307;SDS011;1666;48.898;9.182;2023-03-31T00:05:14;8.02;;;1.90;;
3307;SDS011;1666;48.898;9.182;2023-03-31T00:07:44;9.23;;;1.92;;
3307;SDS011;1666;48.898;9.182;2023-03-31T00:10:14;2.80;;;1.42;;
3307;SDS011;1666;48.898;9.182;2023-03-31T00:12:47;5.80;;;1.95;;
3307;SDS011;1666;48.898;9.182;2023-03-31T00:15:17;6.43;;;1.70;;
3307;SDS011;1666;48.898;9.182;2023-03-31T00:17:47;9.95;;;2.45;;
3307;SDS011;1666;48.898;9.182;2023-03-31T00:20:17;4.50;;;1.60;;
3307;SDS011;1666;48.898;9.182;2023-03-31T00:22:48;5.93;;;1.83;;
3307;SDS011;1666;48.898;9.182;2023-03-31T00:25:20;4.03;;;1.52;;
3307;SDS011;1666;48.898;9.182;2023-03-31T00:27:52;7.13;;;1.70;;
3307;SDS011;1666;48.898;9.182;2023-03-31T00:30:22;4.10;;;1.70;;
3307;SDS011;1666;48.898;9.182;2023-03-31T00:32:52;5.25;;;2.17;;
3307;SDS011;1666;48.898;9.182;2023-03-31T00:35:22;7.60;;;2.45;;
3307;SDS011;1666;48.898;9.182;2023-03-31T00:37:52;5.60;;;2.03;;
3307;SDS011;1666;48.898;9.182;2023-03-31T00:40:23;6.40;;;1.90;;
3307;SDS011;1666;48.898;9.182;2023-03-31T00:42:56;4.63;;;1.80;;
3307;SDS011;1666;48.898;9.182;2023-03-31T00:45:26;3.25;;;1.67;;
3307;SDS011;1666;48.898;9.182;2023-03-31T00:48:00;5.63;;;1.85;;
3307;SDS011;1666;48.898;9.182;2023-03-31T00:50:36;5.25;;;1.73;;
3307;SDS011;1666;48.898;9.182;2023-03-31T00:53:11;7.82;;;2.13;;
3307;SDS011;1666;48.898;9.182;2023-03-31T00:55:46;4.30;;;1.77;;
3307;SDS011;1666;48.898;9.182;2023-03-31T00:58:22;5.53;;;1.98;;
3307;SDS011;1666;48.898;9.182;2023-03-31T01:00:55;7.65;;;2.20;;
3307;SDS011;1666;48.898;9.182;2023-03-31T01:03:27;7.63;;;2.10;;
3307;SDS011;1666;48.898;9.182;2023-03-31T01:06:00;4.25;;;1.65;;
3307;SDS011;1666;48.898;9.182;2023-03-31T01:08:36;6.32;;;1.65;;
3307;SDS011;1666;48.898;9.182;2023-03-31T01:11:09;7.20;;;2.00;;
3307;SDS011;1666;48.898;9.182;2023-03-31T01:13:44;8.02;;;1.88;;
3307;SDS011;1666;48.898;9.182;2023-03-31T01:16:17;6.53;;;1.88;;
3307;SDS011;1666;48.898;9.182;2023-03-31T01:18:47;7.88;;;2.22;;
3307;SDS011;1666;48.898;9.182;2023-03-31T01:21:30;6.32;;;1.90;;
3307;SDS011;1666;48.898;9.182;2023-03-31T01:24:36;4.57;;;1.73;;
3307;SDS011;1666;48.898;9.182;2023-03-31T01:27:35;4.72;;;1.67;;
3307;SDS011;1666;48.898;9.182;2023-03-31T01:30:22;4.45;;;1.45;;
3307;SDS011;1666;48.898;9.182;2023-03-31T01:33:14;6.50;;;1.85;;
3307;SDS011;1666;48.898;9.182;2023-03-31T01:42:21;5.63;;;1.60;;
3307;SDS011;1666;48.898;9.182;2023-03-31T01:44:57;6.40;;;1.95;;
3307;SDS011;1666;48.898;9.182;2023-03-31T01:47:36;4.82;;;1.75;;
3307;SDS011;1666;48.898;9.182;2023-03-31T01:50:14;7.88;;;2.00;;
3307;SDS011;1666;48.898;9.182;2023-03-31T01:52:52;4.72;;;1.80;;
3307;SDS011;1666;48.898;9.182;2023-03-31T01:55:28;8.93;;;1.98;;
3307;SDS011;1666;48.898;9.182;2023-03-31T01:58:04;10.18;;;2.08;;
3307;SDS011;1666;48.898;9.182;2023-03-31T02:00:40;6.10;;;2.25;;
3307;SDS011;1666;48.898;9.182;2023-03-31T02:03:18;8.95;;;1.90;;
3307;SDS011;1666;48.898;9.182;2023-03-31T02:05:55;6.50;;;1.90;;
3307;SDS011;1666;48.898;9.182;2023-03-31T02:08:28;6.07;;;1.50;;
3307;SDS011;1666;48.898;9.182;2023-03-31T02:11:02;7.85;;;1.65;;
3307;SDS011;1666;48.898;9.182;2023-03-31T02:13:34;7.53;;;1.45;;
3307;SDS011;1666;48.898;9.182;2023-03-31T02:16:11;6.57;;;1.50;;
3307;SDS011;1666;48.898;9.182;2023-03-31T02:18:45;5.53;;;1.50;;
3307;SDS011;1666;48.898;9.182;2023-03-31T02:21:18;6.75;;;1.42;;
3307;SDS011;1666;48.898;9.182;2023-03-31T02:23:49;2.38;;;1.08;;
3307;SDS011;1666;48.898;9.182;2023-03-31T02:26:22;3.47;;;1.20;;
3307;SDS011;1666;48.898;9.182;2023-03-31T02:28:57;6.50;;;1.23;;
3307;SDS011;1666;48.898;9.182;2023-03-31T02:31:28;3.03;;;1.45;;
3307;SDS011;1666;48.898;9.182;2023-03-31T02:34:05;2.92;;;1.30;;
3307;SDS011;1666;48.898;9.182;2023-03-31T02:36:35;5.25;;;1.67;;
3307;SDS011;1666;48.898;9.182;2023-03-31T02:39:05;5.70;;;1.50;;
3307;SDS011;1666;48.898;9.182;2023-03-31T02:41:38;4.57;;;1.33;;
3307;SDS011;1666;48.898;9.182;2023-03-31T02:44:11;7.00;;;1.70;;
3307;SDS011;1666;48.898;9.182;2023-03-31T02:46:41;3.45;;;1.40;;
3307;SDS011;1666;48.898;9.182;2023-03-31T02:49:11;5.00;;;1.20;;
3307;SDS011;1666;48.898;9.182;2023-03-31T02:51:48;7.40;;;1.83;;
3307;SDS011;1666;48.898;9.182;2023-03-31T02:54:39;4.78;;;1.58;;
3307;SDS011;1666;48.898;9.182;2023-03-31T02:57:23;5.43;;;1.23;;
3307;SDS011;1666;48.898;9.182;2023-03-31T03:00:10;3.63;;;1.40;;
3307;SDS011;1666;48.898;9.182;2023-03-31T03:02:50;4.78;;;1.88;;
3307;SDS011;1666;48.898;9.182;2023-03-31T03:05:31;6.55;;;2.03;;
3307;SDS011;1666;48.898;9.182;2023-03-31T03:08:14;4.10;;;1.88;;
3307;SDS011;1666;48.898;9.182;2023-03-31T03:10:57;6.30;;;2.13;;
3307;SDS011;1666;48.898;9.182;2023-03-31T03:13:38;8.07;;;2.22;;
3307;SDS011;1666;48.898;9.182;2023-03-31T03:16:17;10.38;;;2.20;;
3307;SDS011;1666;48.898;9.182;2023-03-31T03:18:56;4.18;;;1.75;;
3307;SDS011;1666;48.898;9.182;2023-03-31T03:21:26;7.18;;;2.30;;
3307;SDS011;1666;48.898;9.182;2023-03-31T03:23:57;7.53;;;2.30;;
3307;SDS011;1666;48.898;9.182;2023-03-31T03:26:27;5.88;;;2.08;;
3307;SDS011;1666;48.898;9.182;2023-03-31T03:29:00;4.95;;;2.10;;
3307;SDS011;1666;48.898;9.182;2023-03-31T03:31:33;6.38;;;2.15;;
3307;SDS011;1666;48.898;9.182;2023-03-31T03:34:03;5.93;;;2.47;;
3307;SDS011;1666;48.898;9.182;2023-03-31T03:36:33;4.75;;;1.95;;
3307;SDS011;1666;48.898;9.182;2023-03-31T03:39:03;6.85;;;2.28;;
3307;SDS011;1666;48.898;9.182;2023-03-31T03:41:34;4.22;;;1.80;;
3307;SDS011;1666;48.898;9.182;2023-03-31T03:44:04;7.55;;;3.00;;
3307;SDS011;1666;48.898;9.182;2023-03-31T03:46:36;6.10;;;2.40;;
3307;SDS011;1666;48.898;9.182;2023-03-31T03:49:07;5.60;;;2.65;;
3307;SDS011;1666;48.898;9.182;2023-03-31T03:51:36;10.23;;;2.45;;
3307;SDS011;1666;48.898;9.182;2023-03-31T03:54:06;6.00;;;2.50;;
3307;SDS011;1666;48.898;9.182;2023-03-31T03:56:37;6.80;;;2.53;;
3307;SDS011;1666;48.898;9.182;2023-03-31T03:59:07;8.73;;;2.90;;
3307;SDS011;1666;48.898;9.182;2023-03-31T04:01:39;6.47;;;2.60;;
3307;SDS011;1666;48.898;9.182;2023-03-31T04:04:09;8.13;;;2.50;;
3307;SDS011;1666;48.898;9.182;2023-03-31T04:06:39;8.15;;;2.88;;
3307;SDS011;1666;48.898;9.182;2023-03-31T04:09:09;6.88;;;2.33;;
3307;SDS011;1666;48.898;9.182;2023-03-31T04:11:39;3.50;;;2.40;;
3307;SDS011;1666;48.898;9.182;2023-03-31T04:14:09;6.80;;;2.22;;
3307;SDS011;1666;48.898;9.182;2023-03-31T04:16:42;3.97;;;2.70;;
3307;SDS011;1666;48.898;9.182;2023-03-31T04:19:12;5.68;;;2.60;;
3307;SDS011;1666;48.898;9.182;2023-03-31T04:21:43;5.80;;;2.75;;
3307;SDS011;1666;48.898;9.182;2023-03-31T04:24:16;10.57;;;3.38;;
3307;SDS011;1666;48.898;9.182;2023-03-31T04:26:47;6.93;;;2.95;;
3307;SDS011;1666;48.898;9.182;2023-03-31T04:29:17;5.68;;;2.47;;
3307;SDS011;1666;48.898;9.182;2023-03-31T04:31:50;6.43;;;2.72;;
3307;SDS011;1666;48.898;9.182;2023-03-31T04:34:24;5.78;;;2.80;;
3307;SDS011;1666;48.898;9.182;2023-03-31T04:37:01;6.93;;;2.80;;
3307;SDS011;1666;48.898;9.182;2023-03-31T04:39:31;6.18;;;2.63;;
3307;SDS011;1666;48.898;9.182;2023-03-31T04:42:01;7.70;;;2.63;;
3307;SDS011;1666;48.898;9.182;2023-03-31T04:44:31;6.65;;;2.88;;
3307;SDS011;1666;48.898;9.182;2023-03-31T04:47:04;6.22;;;3.00;;
3307;SDS011;1666;48.898;9.182;2023-03-31T04:49:34;7.28;;;3.55;;
3307;SDS011;1666;48.898;9.182;2023-03-31T04:52:04;8.35;;;3.08;;
3307;SDS011;1666;48.898;9.182;2023-03-31T04:54:34;7.03;;;3.50;;
3307;SDS011;1666;48.898;9.182;2023-03-31T04:57:03;7.80;;;3.03;;
3307;SDS011;1666;48.898;9.182;2023-03-31T04:59:34;7.53;;;3.05;;
3307;SDS011;1666;48.898;9.182;2023-03-31T05:02:06;8.40;;;3.50;;
3307;SDS011;1666;48.898;9.182;2023-03-31T05:04:36;8.00;;;3.42;;
3307;SDS011;1666;48.898;9.182;2023-03-31T05:07:06;7.93;;;3.03;;
3307;SDS011;1666;48.898;9.182;2023-03-31T05:09:36;7.07;;;3.33;;
3307;SDS011;1666;48.898;9.182;2023-03-31T05:12:06;7.70;;;3.20;;
3307;SDS011;1666;48.898;9.182;2023-03-31T05:14:36;9.23;;;3.45;;
3307;SDS011;1666;48.898;9.182;2023-03-31T05:17:08;9.52;;;3.85;;
3307;SDS011;1666;48.898;9.182;2023-03-31T05:19:38;13.10;;;3.50;;
3307;SDS011;1666;48.898;9.182;2023-03-31T05:22:08;7.32;;;3.83;;
3307;SDS011;1666;48.898;9.182;2023-03-31T05:24:38;12.65;;;4.03;;
3307;SDS011;1666;48.898;9.182;2023-03-31T05:27:08;9.20;;;4.30;;
3307;SDS011;1666;48.898;9.182;2023-03-31T05:29:38;8.02;;;3.47;;
3307;SDS011;1666;48.898;9.182;2023-03-31T05:32:12;14.27;;;4.57;;
3307;SDS011;1666;48.898;9.182;2023-03-31T05:34:42;12.45;;;4.93;;
3307;SDS011;1666;48.898;9.182;2023-03-31T05:37:12;11.85;;;4.97;;
3307;SDS011;1666;48.898;9.182;2023-03-31T05:39:41;10.02;;;4.75;;
3307;SDS011;1666;48.898;9.182;2023-03-31T05:42:11;17.33;;;5.13;;
3307;SDS011;1666;48.898;9.182;2023-03-31T05:44:41;12.52;;;6.28;;
3307;SDS011;1666;48.898;9.182;2023-03-31T05:47:14;11.30;;;4.60;;
3307;SDS011;1666;48.898;9.182;2023-03-31T05:49:44;14.10;;;5.80;;
3307;SDS011;1666;48.898;9.182;2023-03-31T05:52:14;16.75;;;5.75;;
3307;SDS011;1666;48.898;9.182;2023-03-31T05:54:44;14.98;;;6.35;;
3307;SDS011;1666;48.898;9.182;2023-03-31T05:57:13;13.43;;;6.35;;
3307;SDS011;1666;48.898;9.182;2023-03-31T05:59:43;12.80;;;6.03;;
3307;SDS011;1666;48.898;9.182;2023-03-31T06:02:16;11.25;;;5.93;;
3307;SDS011;1666;48.898;9.182;2023-03-31T06:04:46;17.63;;;6.25;;
3307;SDS011;1666;48.898;9.182;2023-03-31T06:07:16;14.52;;;5.70;;
3307;SDS011;1666;48.898;9.182;2023-03-31T06:09:47;14.05;;;6.32;;
3307;SDS011;1666;48.898;9.182;2023-03-31T06:12:17;12.65;;;6.70;;
3307;SDS011;1666;48.898;9.182;2023-03-31T06:14:47;19.92;;;5.93;;
3307;SDS011;1666;48.898;9.182;2023-03-31T06:17:20;13.82;;;5.75;;
3307;SDS011;1666;48.898;9.182;2023-03-31T06:19:50;14.07;;;6.53;;
3307;SDS011;1666;48.898;9.182;2023-03-31T06:22:19;13.25;;;5.78;;
3307;SDS011;1666;48.898;9.182;2023-03-31T06:24:49;11.45;;;6.05;;
3307;SDS011;1666;48.898;9.182;2023-03-31T06:27:19;12.15;;;6.40;;
3307;SDS011;1666;48.898;9.182;2023-03-31T06:29:49;12.77;;;6.25;;
3307;SDS011;1666;48.898;9.182;2023-03-31T06:32:22;13.75;;;6.38;;
3307;SDS011;1666;48.898;9.182;2023-03-31T06:34:52;14.50;;;6.53;;
3307;SDS011;1666;48.898;9.182;2023-03-31T06:37:22;9.95;;;6.05;;
3307;SDS011;1666;48.898;9.182;2023-03-31T06:39:52;12.07;;;6.75;;
3307;SDS011;1666;48.898;9.182;2023-03-31T06:42:22;17.20;;;6.60;;
3307;SDS011;1666;48.898;9.182;2023-03-31T06:44:52;17.08;;;7.40;;
3307;SDS011;1666;48.898;9.182;2023-03-31T06:47:25;16.50;;;7.20;;
3307;SDS011;1666;48.898;9.182;2023-03-31T06:49:55;15.82;;;7.53;;
3307;SDS011;1666;48.898;9.182;2023-03-31T06:52:25;13.82;;;7.20;;
3307;SDS011;1666;48.898;9.182;2023-03-31T06:54:55;16.73;;;7.70;;
3307;SDS011;1666;48.898;9.182;2023-03-31T06:57:26;13.13;;;6.95;;
3307;SDS011;1666;48.898;9.182;2023-03-31T06:59:59;13.05;;;6.75;;
3307;SDS011;1666;48.898;9.182;2023-03-31T07:02:31;19.17;;;6.72;;
3307;SDS011;1666;48.898;9.182;2023-03-31T07:05:03;15.65;;;7.15;;
3307;SDS011;1666;48.898;9.182;2023-03-31T07:07:33;16.70;;;7.57;;
3307;SDS011;1666;48.898;9.182;2023-03-31T07:10:03;13.38;;;6.30;;
3307;SDS011;1666;48.898;9.182;2023-03-31T07:12:34;13.70;;;7.15;;
3307;SDS011;1666;48.898;9.182;2023-03-31T07:15:05;14.73;;;7.43;;
3307;SDS011;1666;48.898;9.182;2023-03-31T07:17:38;14.30;;;7.35;;
3307;SDS011;1666;48.898;9.182;2023-03-31T07:20:09;18.65;;;9.82;;
3307;SDS011;1666;48.898;9.182;2023-03-31T07:22:40;16.13;;;7.45;;
3307;SDS011;1666;48.898;9.182;2023-03-31T07:25:12;13.63;;;7.72;;
3307;SDS011;1666;48.898;9.182;2023-03-31T07:27:43;11.95;;;7.05;;
3307;SDS011;1666;48.898;9.182;2023-03-31T07:30:13;13.68;;;6.40;;
3307;SDS011;1666;48.898;9.182;2023-03-31T07:32:47;10.10;;;6.05;;
3307;SDS011;1666;48.898;9.182;2023-03-31T07:35:20;10.35;;;5.90;;
3307;SDS011;1666;48.898;9.182;2023-03-31T07:37:51;11.55;;;5.63;;
3307;SDS011;1666;48.898;9.182;2023-03-31T07:40:22;7.70;;;4.78;;
3307;SDS011;1666;48.898;9.182;2023-03-31T07:42:55;4.88;;;3.38;;
3307;SDS011;1666;48.898;9.182;2023-03-31T07:45:25;7.75;;;3.42;;
3307;SDS011;1666;48.898;9.182;2023-03-31T07:47:57;5.55;;;2.88;;
3307;SDS011;1666;48.898;9.182;2023-03-31T07:50:28;7.60;;;3.08;;
3307;SDS011;1666;48.898;9.182;2023-03-31T07:52:58;6.63;;;2.60;;
3307;SDS011;1666;48.898;9.182;2023-03-31T07:55:28;3.78;;;1.98;;
3307;SDS011;1666;48.898;9.182;2023-03-31T07:57:58;5.30;;;2.40;;
3307;SDS011;1666;48.898;9.182;2023-03-31T08:00:28;5.75;;;1.90;;
3307;SDS011;1666;48.898;9.182;2023-03-31T08:03:00;7.78;;;1.90;;
3307;SDS011;1666;48.898;9.182;2023-03-31T08:05:30;1.88;;;1.42;;
3307;SDS011;1666;48.898;9.182;2023-03-31T08:08:00;3.75;;;1.52;;
3307;SDS011;1666;48.898;9.182;2023-03-31T08:10:30;2.88;;;1.23;;
3307;SDS011;1666;48.898;9.182;2023-03-31T08:13:00;3.22;;;1.52;;
3307;SDS011;1666;48.898;9.182;2023-03-31T08:15:30;3.50;;;1.50;;
3307;SDS011;1666;48.898;9.182;2023-03-31T08:18:02;5.00;;;1.40;;
3307;SDS011;1666;48.898;9.182;2023-03-31T08:20:33;3.05;;;1.17;;
3307;SDS011;1666;48.898;9.182;2023-03-31T08:23:04;2.08;;;1.20;;
3307;SDS011;1666;48.898;9.182;2023-03-31T08:25:37;3.33;;;1.27;;
3307;SDS011;1666;48.898;9.182;2023-03-31T08:28:07;2.10;;;1.00;;
3307;SDS011;1666;48.898;9.182;2023-03-31T08:30:39;4.65;;;1.40;;
3307;SDS011;1666;48.898;9.182;2023-03-31T08:33:12;2.13;;;1.25;;
3307;SDS011;1666;48.898;9.182;2023-03-31T08:35:44;2.17;;;1.00;;
3307;SDS011;1666;48.898;9.182;2023-03-31T08:38:14;5.15;;;1.38;;
3307;SDS011;1666;48.898;9.182;2023-03-31T08:40:44;2.53;;;1.17;;
3307;SDS011;1666;48.898;9.182;2023-03-31T08:43:15;4.43;;;1.05;;
3307;SDS011;1666;48.898;9.182;2023-03-31T08:45:53;3.97;;;1.40;;
3307;SDS011;1666;48.898;9.182;2023-03-31T08:48:26;2.65;;;1.10;;
3307;SDS011;1666;48.898;9.182;2023-03-31T08:50:59;5.43;;;1.23;;
3307;SDS011;1666;48.898;9.182;2023-03-31T08:53:33;3.60;;;1.33;;
3307;SDS011;1666;48.898;9.182;2023-03-31T08:56:12;3.95;;;1.10;;
3307;SDS011;1666;48.898;9.182;2023-03-31T08:58:45;3.90;;;1.13;;
3307;SDS011;1666;48.898;9.182;2023-03-31T09:01:19;3.78;;;1.55;;
3307;SDS011;1666;48.898;9.182;2023-03-31T09:04:06;6.07;;;1.92;;
3307;SDS011;1666;48.898;9.182;2023-03-31T09:06:47;2.92;;;1.20;;
3307;SDS011;1666;48.898;9.182;2023-03-31T09:09:24;4.22;;;1.38;;
3307;SDS011;1666;48.898;9.182;2023-03-31T09:12:04;4.63;;;1.10;;
3307;SDS011;1666;48.898;9.182;2023-03-31T09:14:40;4.78;;;1.30;;
3307;SDS011;1666;48.898;9.182;2023-03-31T09:17:15;3.63;;;1.38;;
3307;SDS011;1666;48.898;9.182;2023-03-31T09:19:53;5.18;;;1.52;;
3307;SDS011;1666;48.898;9.182;2023-03-31T09:22:28;6.55;;;1.52;;
3307;SDS011;1666;48.898;9.182;2023-03-31T09:25:02;3.70;;;1.30;;
3307;SDS011;1666;48.898;9.182;2023-03-31T09:27:35;4.13;;;1.25;;
3307;SDS011;1666;48.898;9.182;2023-03-31T09:30:09;4.95;;;1.10;;
3307;SDS011;1666;48.898;9.182;2023-03-31T09:32:44;5.78;;;1.33;;
3307;SDS011;1666;48.898;9.182;2023-03-31T09:35:19;6.43;;;1.67;;
3307;SDS011;1666;48.898;9.182;2023-03-31T09:37:51;4.10;;;1.10;;
3307;SDS011;1666;48.898;9.182;2023-03-31T09:40:23;4.07;;;1.10;;
3307;SDS011;1666;48.898;9.182;2023-03-31T09:42:55;3.10;;;1.10;;
3307;SDS011;1666;48.898;9.182;2023-03-31T09:45:28;9.18;;;1.38;;
3307;SDS011;1666;48.898;9.182;2023-03-31T09:48:00;4.70;;;1.40;;
3307;SDS011;1666;48.898;9.182;2023-03-31T09:50:35;4.95;;;1.30;;
3307;SDS011;1666;48.898;9.182;2023-03-31T09:53:10;9.93;;;1.50;;
3307;SDS011;1666;48.898;9.182;2023-03-31T09:55:46;4.10;;;1.30;;
3307;SDS011;1666;48.898;9.182;2023-03-31T09:58:22;5.68;;;1.60;;
3307;SDS011;1666;48.898;9.182;2023-03-31T10:00:57;5.43;;;1.33;;
3307;SDS011;1666;48.898;9.182;2023-03-31T10:03:29;10.00;;;3.53;;
3307;SDS011;1666;48.898;9.182;2023-03-31T10:06:09;6.57;;;1.25;;
3307;SDS011;1666;48.898;9.182;2023-03-31T10:08:43;5.90;;;1.48;;
3307;SDS011;1666;48.898;9.182;2023-03-31T10:11:17;5.43;;;1.23;;
3307;SDS011;1666;48.898;9.182;2023-03-31T10:13:48;6.57;;;1.75;;
3307;SDS011;1666;48.898;9.182;2023-03-31T10:16:27;6.32;;;2.05;;
3307;SDS011;1666;48.898;9.182;2023-03-31T10:21:58;6.38;;;1.67;;
3307;SDS011;1666;48.898;9.182;2023-03-31T10:24:35;3.92;;;1.55;;
3307;SDS011;1666;48.898;9.182;2023-03-31T10:27:12;7.07;;;1.58;;
3307;SDS011;1666;48.898;9.182;2023-03-31T10:29:50;7.28;;;1.60;;
3307;SDS011;1666;48.898;9.182;2023-03-31T10:32:22;4.47;;;1.77;;
3307;SDS011;1666;48.898;9.182;2023-03-31T10:34:54;6.10;;;1.67;;
3307;SDS011;1666;48.898;9.182;2023-03-31T10:37:29;7.55;;;1.80;;
3307;SDS011;1666;48.898;9.182;2023-03-31T10:40:00;7.10;;;1.33;;
3307;SDS011;1666;48.898;9.182;2023-03-31T10:42:32;4.57;;;1.25;;
3307;SDS011;1666;48.898;9.182;2023-03-31T10:45:09;6.13;;;1.38;;
3307;SDS011;1666;48.898;9.182;2023-03-31T10:47:55;5.40;;;1.40;;
3307;SDS011;1666;48.898;9.182;2023-03-31T10:50:28;3.53;;;1.45;;
3307;SDS011;1666;48.898;9.182;2023-03-31T10:53:03;8.55;;;1.90;;
3307;SDS011;1666;48.898;9.182;2023-03-31T10:55:36;8.23;;;1.90;;
3307;SDS011;1666;48.898;9.182;2023-03-31T10:58:18;5.47;;;2.00;;
3307;SDS011;1666;48.898;9.182;2023-03-31T11:01:03;5.45;;;1.48;;
3307;SDS011;1666;48.898;9.182;2023-03-31T11:06:44;3.53;;;1.38;;
3307;SDS011;1666;48.898;9.182;2023-03-31T11:09:35;4.43;;;1.10;;
3307;SDS011;1666;48.898;9.182;2023-03-31T11:12:17;3.92;;;1.30;;
3307;SDS011;1666;48.898;9.182;2023-03-31T11:14:54;7.20;;;1.48;;
3307;SDS011;1666;48.898;9.182;2023-03-31T11:17:35;6.28;;;1.30;;
3307;SDS011;1666;48.898;9.182;2023-03-31T11:20:20;5.45;;;1.30;;
3307;SDS011;1666;48.898;9.182;2023-03-31T11:22:58;3.97;;;0.70;;
3307;SDS011;1666;48.898;9.182;2023-03-31T11:25:41;2.97;;;0.73;;
3307;SDS011;1666;48.898;9.182;2023-03-31T11:28:21;2.75;;;0.70;;
3307;SDS011;1666;48.898;9.182;2023-03-31T11:30:57;8.32;;;1.15;;
3307;SDS011;1666;48.898;9.182;2023-03-31T11:33:40;2.88;;;0.80;;
3307;SDS011;1666;48.898;9.182;2023-03-31T11:36:44;4.20;;;0.82;;
3307;SDS011;1666;48.898;9.182;2023-03-31T11:39:33;2.95;;;0.80;;
3307;SDS011;1666;48.898;9.182;2023-03-31T11:42:14;1.45;;;0.52;;
3307;SDS011;1666;48.898;9.182;2023-03-31T11:44:49;1.05;;;0.40;;
3307;SDS011;1666;48.898;9.182;2023-03-31T11:47:22;2.60;;;0.57;;
3307;SDS011;1666;48.898;9.182;2023-03-31T11:49:56;6.22;;;0.82;;
3307;SDS011;1666;48.898;9.182;2023-03-31T11:52:29;1.25;;;0.35;;
3307;SDS011;1666;48.898;9.182;2023-03-31T11:55:03;0.70;;;0.30;;
3307;SDS011;1666;48.898;9.182;2023-03-31T11:57:44;3.67;;;0.47;;
3307;SDS011;1666;48.898;9.182;2023-03-31T12:00:19;1.50;;;0.70;;
3307;SDS011;1666;48.898;9.182;2023-03-31T12:02:53;0.93;;;0.50;;
3307;SDS011;1666;48.898;9.182;2023-03-31T12:05:28;0.75;;;0.40;;
3307;SDS011;1666;48.898;9.182;2023-03-31T12:08:02;3.35;;;0.70;;
3307;SDS011;1666;48.898;9.182;2023-03-31T12:10:40;2.63;;;0.50;;
3307;SDS011;1666;48.898;9.182;2023-03-31T12:13:32;3.22;;;0.40;;
3307;SDS011;1666;48.898;9.182;2023-03-31T12:16:08;0.57;;;0.30;;
3307;SDS011;1666;48.898;9.182;2023-03-31T12:18:43;2.13;;;0.35;;
3307;SDS011;1666;48.898;9.182;2023-03-31T12:21:25;5.15;;;0.40;;
3307;SDS011;1666;48.898;9.182;2023-03-31T12:23:57;1.48;;;0.32;;
3307;SDS011;1666;48.898;9.182;2023-03-31T12:26:30;2.40;;;0.70;;
3307;SDS011;1666;48.898;9.182;2023-03-31T12:29:14;1.38;;;0.40;;
3307;SDS011;1666;48.898;9.182;2023-03-31T12:31:52;1.70;;;0.43;;
3307;SDS011;1666;48.898;9.182;2023-03-31T12:34:25;2.15;;;0.70;;
3307;SDS011;1666;48.898;9.182;2023-03-31T12:37:03;1.60;;;0.73;;
3307;SDS011;1666;48.898;9.182;2023-03-31T12:39:52;4.65;;;2.60;;
3307;SDS011;1666;48.898;9.182;2023-03-31T12:42:39;1.88;;;0.50;;
3307;SDS011;1666;48.898;9.182;2023-03-31T12:45:26;2.63;;;0.60;;
3307;SDS011;1666;48.898;9.182;2023-03-31T12:48:06;4.55;;;0.80;;
3307;SDS011;1666;48.898;9.182;2023-03-31T12:50:49;4.13;;;0.73;;
3307;SDS011;1666;48.898;9.182;2023-03-31T12:53:31;2.50;;;0.90;;
3307;SDS011;1666;48.898;9.182;2023-03-31T12:56:13;4.82;;;1.23;;
3307;SDS011;1666;48.898;9.182;2023-03-31T12:58:43;2.42;;;0.80;;
3307;SDS011;1666;48.898;9.182;2023-03-31T13:01:17;5.40;;;1.02;;
3307;SDS011;1666;48.898;9.182;2023-03-31T13:03:52;2.75;;;0.85;;
3307;SDS011;1666;48.898;9.182;2023-03-31T13:12:08;6.57;;;1.95;;
3307;SDS011;1666;48.898;9.182;2023-03-31T13:14:43;5.43;;;0.90;;
3307;SDS011;1666;48.898;9.182;2023-03-31T13:17:24;7.13;;;0.70;;
3307;SDS011;1666;48.898;9.182;2023-03-31T13:22:58;2.90;;;0.70;;
3307;SDS011;1666;48.898;9.182;2023-03-31T13:28:25;2.88;;;0.50;;
3307;SDS011;1666;48.898;9.182;2023-03-31T13:31:00;3.55;;;1.10;;
3307;SDS011;1666;48.898;9.182;2023-03-31T13:33:34;3.00;;;0.95;;
3307;SDS011;1666;48.898;9.182;2023-03-31T13:39:25;2.80;;;0.75;;
3307;SDS011;1666;48.898;9.182;2023-03-31T13:42:22;3.08;;;0.65;;
3307;SDS011;1666;48.898;9.182;2023-03-31T13:45:10;3.63;;;0.52;;
3307;SDS011;1666;48.898;9.182;2023-03-31T13:47:54;2.58;;;0.60;;
3307;SDS011;1666;48.898;9.182;2023-03-31T13:50:37;2.88;;;0.40;;
3307;SDS011;1666;48.898;9.182;2023-03-31T13:53:21;0.85;;;0.40;;
3307;SDS011;1666;48.898;9.182;2023-03-31T13:56:07;1.75;;;0.45;;
3307;SDS011;1666;48.898;9.182;2023-03-31T13:58:49;1.70;;;0.50;;
3307;SDS011;1666;48.898;9.182;2023-03-31T14:01:54;4.43;;;0.50;;
3307;SDS011;1666;48.898;9.182;2023-03-31T14:04:54;1.05;;;0.40;;
3307;SDS011;1666;48.898;9.182;2023-03-31T14:07:48;1.20;;;0.40;;
3307;SDS011;1666;48.898;9.182;2023-03-31T14:10:23;2.40;;;0.45;;
3307;SDS011;1666;48.898;9.182;2023-03-31T14:13:08;0.67;;;0.30;;
3307;SDS011;1666;48.898;9.182;2023-03-31T14:15:43;2.13;;;0.57;;
3307;SDS011;1666;48.898;9.182;2023-03-31T14:18:17;1.13;;;0.47;;
3307;SDS011;1666;48.898;9.182;2023-03-31T14:21:00;2.67;;;0.50;;
3307;SDS011;1666;48.898;9.182;2023-03-31T14:23:46;2.90;;;0.88;;
3307;SDS011;1666;48.898;9.182;2023-03-31T14:26:36;1.10;;;0.40;;
3307;SDS011;1666;48.898;9.182;2023-03-31T14:29:16;2.28;;;0.77;;
3307;SDS011;1666;48.898;9.182;2023-03-31T14:31:53;5.47;;;0.82;;
3307;SDS011;1666;48.898;9.182;2023-03-31T14:34:39;2.30;;;0.50;;
3307;SDS011;1666;48.898;9.182;2023-03-31T14:37:18;3.38;;;1.00;;
3307;SDS011;1666;48.898;9.182;2023-03-31T14:39:52;1.80;;;0.70;;
3307;SDS011;1666;48.898;9.182;2023-03-31T14:42:24;2.13;;;0.60;;
3307;SDS011;1666;48.898;9.182;2023-03-31T14:44:56;0.98;;;0.20;;
3307;SDS011;1666;48.898;9.182;2023-03-31T14:50:00;0.80;;;0.30;;
3307;SDS011;1666;48.898;9.182;2023-03-31T14:55:12;2.63;;;0.45;;
3307;SDS011;1666;48.898;9.182;2023-03-31T14:57:42;2.00;;;0.47;;
3307;SDS011;1666;48.898;9.182;2023-03-31T15:00:15;1.40;;;0.60;;
3307;SDS011;1666;48.898;9.182;2023-03-31T15:02:48;1.45;;;0.32;;
3307;SDS011;1666;48.898;9.182;2023-03-31T15:05:20;2.75;;;0.80;;
3307;SDS011;1666;48.898;9.182;2023-03-31T15:07:56;2.50;;;0.60;;
3307;SDS011;1666;48.898;9.182;2023-03-31T15:10:32;1.50;;;0.40;;
3307;SDS011;1666;48.898;9.182;2023-03-31T15:13:08;0.98;;;0.50;;
3307;SDS011;1666;48.898;9.182;2023-03-31T15:15:40;4.43;;;0.68;;
3307;SDS011;1666;48.898;9.182;2023-03-31T15:18:11;1.95;;;0.40;;
3307;SDS011;1666;48.898;9.182;2023-03-31T15:20:43;1.00;;;0.50;;
3307;SDS011;1666;48.898;9.182;2023-03-31T15:23:18;0.57;;;0.35;;
3307;SDS011;1666;48.898;9.182;2023-03-31T15:25:54;1.50;;;0.63;;
3307;SDS011;1666;48.898;9.182;2023-03-31T15:28:28;2.22;;;0.47;;
3307;SDS011;1666;48.898;9.182;2023-03-31T15:33:36;1.83;;;0.50;;
3307;SDS011;1666;48.898;9.182;2023-03-31T15:36:09;1.25;;;0.65;;
3307;SDS011;1666;48.898;9.182;2023-03-31T15:38:40;2.35;;;0.80;;
3307;SDS011;1666;48.898;9.182;2023-03-31T15:41:13;3.15;;;0.68;;
3307;SDS011;1666;48.898;9.182;2023-03-31T15:43:47;5.82;;;0.77;;
3307;SDS011;1666;48.898;9.182;2023-03-31T15:46:19;1.35;;;0.40;;
3307;SDS011;1666;48.898;9.182;2023-03-31T15:48:54;1.95;;;0.50;;
3307;SDS011;1666;48.898;9.182;2023-03-31T15:51:25;3.25;;;0.70;;
3307;SDS011;1666;48.898;9.182;2023-03-31T15:53:59;2.10;;;0.60;;
3307;SDS011;1666;48.898;9.182;2023-03-31T15:56:33;3.72;;;0.90;;
3307;SDS011;1666;48.898;9.182;2023-03-31T15:59:06;3.15;;;1.05;;
3307;SDS011;1666;48.898;9.182;2023-03-31T16:01:59;3.67;;;1.17;;
3307;SDS011;1666;48.898;9.182;2023-03-31T16:04:31;2.45;;;0.65;;
3307;SDS011;1666;48.898;9.182;2023-03-31T16:07:03;2.25;;;0.70;;
3307;SDS011;1666;48.898;9.182;2023-03-31T16:09:38;3.17;;;0.68;;
3307;SDS011;1666;48.898;9.182;2023-03-31T16:12:16;4.18;;;0.95;;
3307;SDS011;1666;48.898;9.182;2023-03-31T16:14:50;4.38;;;0.90;;
3307;SDS011;1666;48.898;9.182;2023-03-31T16:17:25;1.73;;;0.73;;
3307;SDS011;1666;48.898;9.182;2023-03-31T16:20:00;3.97;;;1.00;;
3307;SDS011;1666;48.898;9.182;2023-03-31T16:22:35;3.08;;;1.15;;
3307;SDS011;1666;48.898;9.182;2023-03-31T16:25:09;3.13;;;0.80;;
3307;SDS011;1666;48.898;9.182;2023-03-31T16:27:44;2.78;;;0.80;;
3307;SDS011;1666;48.898;9.182;2023-03-31T16:30:18;3.50;;;1.17;;
3307;SDS011;1666;48.898;9.182;2023-03-31T16:32:57;2.47;;;0.90;;